Time;durP1;ratioP1;P1;durP2;ratioP2;P2;SDS_P1;SDS_P2;PMS_P1;PMS_P2;Temp;Humidity;BMP_temperature;BMP_pressure;BME280_temperature;BME280_humidity;BME280_pressure;Samples;Min_cycle;Max_cycle;Signal;HPM_P1;HPM_P2
2022/09/09 00:00:44;;;;;;;3.28;0.77;;;16.00;73.00;;;;;;5028505;28;20041;-61
2022/09/09 00:03:26;;;;;;;3.45;0.80;;;16.00;73.20;;;;;;5031858;28;20044;-62
2022/09/09 00:06:09;;;;;;;2.28;0.60;;;16.00;73.40;;;;;;5028554;28;20121;-63
2022/09/09 00:08:43;;;;;;;1.00;0.60;;;16.00;73.40;;;;;;5030915;28;20029;-62
2022/09/09 00:11:12;;;;;;;0.98;0.80;;;15.90;74.30;;;;;;5030321;28;20036;-61
2022/09/09 00:13:49;;;;;;;1.50;0.82;;;15.90;73.30;;;;;;5031149;28;20039;-61
2022/09/09 00:16:24;;;;;;;1.00;0.68;;;15.90;73.50;;;;;;5035563;28;20113;-61
2022/09/09 00:19:14;;;;;;;1.50;0.77;;;15.90;73.60;;;;;;5034514;28;20037;-61
2022/09/09 00:21:52;;;;;;;0.75;0.65;;;15.90;73.70;;;;;;5033879;28;20061;-59
2022/09/09 00:24:37;;;;;;;1.15;0.70;;;15.80;73.60;;;;;;5033048;28;20706;-61
2022/09/09 00:27:15;;;;;;;3.88;0.77;;;15.80;73.90;;;;;;5035436;28;20037;-61
2022/09/09 00:30:13;;;;;;;1.88;0.80;;;15.80;73.50;;;;;;5034896;28;20037;-62
2022/09/09 00:32:39;;;;;;;0.82;0.82;;;15.80;74.00;;;;;;5034315;28;20030;-61
2022/09/09 00:35:11;;;;;;;1.20;0.60;;;15.70;73.20;;;;;;5035059;28;20040;-61
2022/09/09 00:37:38;;;;;;;2.47;0.70;;;15.70;74.00;;;;;;5032863;28;20025;-62
2022/09/09 00:40:18;;;;;;;2.83;0.77;;;15.60;73.70;;;;;;5034612;28;20056;-61
2022/09/09 00:42:44;;;;;;;0.85;0.70;;;15.70;74.20;;;;;;5032310;28;20047;-59
2022/09/09 00:45:34;;;;;;;2.35;0.80;;;15.60;73.70;;;;;;5033031;28;20497;-61
2022/09/09 00:48:09;;;;;;;1.20;0.75;;;15.60;74.40;;;;;;5036215;28;20505;-60
2022/09/09 00:50:56;;;;;;;1.95;0.70;;;15.60;73.90;;;;;;5035675;28;20129;-62
2022/09/09 00:53:42;;;;;;;1.67;0.85;;;15.50;74.30;;;;;;5036001;28;20068;-61
2022/09/09 00:56:19;;;;;;;1.10;0.70;;;15.50;74.20;;;;;;5035578;28;20114;-61
2022/09/09 00:59:11;;;;;;;2.47;0.70;;;15.40;74.50;;;;;;5033499;28;20045;-61
2022/09/09 01:01:39;;;;;;;2.20;0.70;;;15.40;74.70;;;;;;5032521;28;20025;-60
2022/09/09 01:04:16;;;;;;;0.88;0.77;;;15.40;74.20;;;;;;5034834;28;20465;-60
2022/09/09 01:06:42;;;;;;;1.88;0.90;;;15.40;74.40;;;;;;5035882;28;20033;-61
2022/09/09 01:09:16;;;;;;;1.80;0.80;;;15.40;74.20;;;;;;5035143;28;20033;-61
2022/09/09 01:12:00;;;;;;;;;;;15.30;74.40;;;;;;5031557;28;20040;-61
2022/09/09 01:14:35;;;;;;;4.53;0.70;;;15.30;74.70;;;;;;5032486;28;20368;-61
2022/09/09 01:17:14;;;;;;;1.75;0.80;;;15.20;74.90;;;;;;5030431;28;20065;-61
2022/09/09 01:19:43;;;;;;;1.77;0.90;;;15.20;75.10;;;;;;5029322;28;20519;-62
2022/09/09 01:22:26;;;;;;;1.35;0.70;;;15.20;74.70;;;;;;5033357;28;20041;-61
2022/09/09 01:25:13;;;;;;;1.80;1.38;;;15.20;75.10;;;;;;5011223;28;20033;-61
2022/09/09 01:27:43;;;;;;;0.88;0.70;;;15.10;75.50;;;;;;5010032;28;20038;-61
2022/09/09 01:30:11;;;;;;;1.25;0.70;;;15.10;75.10;;;;;;5009570;28;20030;-61
2022/09/09 01:32:46;;;;;;;1.65;0.80;;;15.10;75.10;;;;;;5007546;28;20033;-61
2022/09/09 01:35:35;;;;;;;;;;;15.10;75.40;;;;;;5012959;28;20145;-61
2022/09/09 01:38:00;;;;;;;2.15;0.95;;;15.20;75.40;;;;;;5011533;28;19913;-60
2022/09/09 01:40:26;;;;;;;0.95;0.70;;;15.10;74.40;;;;;;5010088;28;20516;-61
2022/09/09 01:42:53;;;;;;;3.33;1.08;;;15.10;74.60;;;;;;5009426;28;20128;-61
2022/09/09 01:45:19;;;;;;;2.83;0.90;;;15.00;74.90;;;;;;5008840;28;20060;-60
2022/09/09 01:47:45;;;;;;;2.05;0.85;;;14.90;75.10;;;;;;5011496;28;20289;-61
2022/09/09 01:50:14;;;;;;;2.00;1.52;;;14.90;75.40;;;;;;5007922;28;20038;-61
2022/09/09 01:52:40;;;;;;;6.18;2.33;;;14.90;75.70;;;;;;5008743;28;20034;-61
2022/09/09 01:55:06;;;;;;;11.52;4.10;;;14.90;75.80;;;;;;5013218;28;20033;-60
2022/09/09 01:57:56;;;;;;;12.32;4.35;;;14.90;75.80;;;;;;5007766;28;20164;-61
2022/09/09 02:00:22;;;;;;;10.05;4.55;;;14.90;76.20;;;;;;5010307;28;20042;-61
2022/09/09 02:03:03;;;;;;;9.88;4.38;;;14.90;75.50;;;;;;5009772;28;20675;-61
2022/09/09 02:05:40;;;;;;;6.55;3.13;;;14.90;75.30;;;;;;5009386;28;20021;-60
2022/09/09 02:08:11;;;;;;;5.43;2.58;;;14.90;75.60;;;;;;5013442;28;20033;-60
2022/09/09 02:10:46;;;;;;;3.47;1.70;;;14.90;75.30;;;;;;5012491;28;20038;-61
2022/09/09 02:13:19;;;;;;;3.95;1.80;;;14.90;76.00;;;;;;5013401;28;20037;-60
2022/09/09 02:16:29;;;;;;;2.58;1.52;;;14.90;75.60;;;;;;5011288;28;20091;-61
2022/09/09 02:19:08;;;;;;;2.45;1.50;;;14.90;76.00;;;;;;5029856;28;20606;-61
2022/09/09 02:21:37;;;;;;;1.77;1.20;;;14.80;75.30;;;;;;5033497;28;21748;-60
2022/09/09 02:24:08;;;;;;;1.77;1.10;;;14.80;75.30;;;;;;5033150;28;20030;-61
2022/09/09 02:26:38;;;;;;;2.08;0.95;;;14.80;75.70;;;;;;5030641;28;20061;-60
2022/09/09 02:29:16;;;;;;;1.35;0.93;;;14.80;75.60;;;;;;5034120;28;20033;-61
2022/09/09 02:31:44;;;;;;;1.42;1.00;;;14.70;75.80;;;;;;5032376;28;20533;-61
2022/09/09 02:34:12;;;;;;;3.20;1.08;;;14.70;75.80;;;;;;5033873;28;20038;-61
2022/09/09 02:36:41;;;;;;;1.77;1.08;;;14.70;76.10;;;;;;5031774;28;20041;-61
2022/09/09 02:39:09;;;;;;;3.92;0.95;;;14.70;76.30;;;;;;5036132;28;20055;-60
2022/09/09 02:41:38;;;;;;;1.73;1.20;;;14.70;76.30;;;;;;5033048;28;20030;-61
2022/09/09 02:44:12;;;;;;;5.20;1.08;;;14.80;76.60;;;;;;5033474;28;20501;-60
2022/09/09 02:46:57;;;;;;;3.45;1.48;;;14.70;76.80;;;;;;5031649;28;20045;-61
2022/09/09 02:49:40;;;;;;;2.75;0.95;;;14.70;77.20;;;;;;5033437;28;20040;-61
2022/09/09 02:52:08;;;;;;;2.28;0.90;;;14.80;76.90;;;;;;5031116;28;20061;-61
2022/09/09 02:54:43;;;;;;;4.35;1.10;;;14.80;76.50;;;;;;5032772;28;20112;-61
2022/09/09 02:57:27;;;;;;;3.45;1.20;;;14.80;76.90;;;;;;5037370;28;20551;-60
2022/09/09 02:59:56;;;;;;;1.43;0.93;;;14.80;77.00;;;;;;5038513;28;20041;-60
2022/09/09 03:02:22;;;;;;;1.65;0.90;;;14.80;76.30;;;;;;5037641;28;20059;-61
2022/09/09 03:04:51;;;;;;;1.95;0.90;;;14.80;76.40;;;;;;5036217;28;20037;-60
2022/09/09 03:07:18;;;;;;;1.95;0.90;;;14.90;76.60;;;;;;5030928;28;20700;-61
2022/09/09 03:09:44;;;;;;;2.55;1.33;;;14.90;76.80;;;;;;5032593;28;20065;-60
2022/09/09 03:12:10;;;;;;;2.53;1.25;;;14.80;76.70;;;;;;5029961;28;20540;-63
2022/09/09 03:14:37;;;;;;;3.42;1.00;;;14.80;76.80;;;;;;5032757;28;20544;-61
2022/09/09 03:17:05;;;;;;;1.17;1.08;;;14.80;77.00;;;;;;5031974;28;20057;-61
2022/09/09 03:19:31;;;;;;;3.10;1.10;;;14.90;77.40;;;;;;5031110;28;20156;-61
2022/09/09 03:21:57;;;;;;;1.73;1.20;;;14.80;77.50;;;;;;5032381;28;20040;-60
2022/09/09 03:24:22;;;;;;;5.25;1.30;;;14.90;77.50;;;;;;5033258;28;20048;-61
2022/09/09 03:26:50;;;;;;;1.98;1.20;;;14.80;77.60;;;;;;5032027;28;20029;-61
2022/09/09 03:29:17;;;;;;;3.50;1.30;;;14.90;77.90;;;;;;5031307;28;20045;-59
2022/09/09 03:31:43;;;;;;;3.42;1.48;;;14.80;77.90;;;;;;5033269;28;20041;-61
2022/09/09 03:34:09;;;;;;;3.08;1.70;;;14.80;78.10;;;;;;5032239;28;20489;-60
2022/09/09 03:36:35;;;;;;;4.22;1.45;;;14.80;78.30;;;;;;5030278;28;20044;-61
2022/09/09 03:39:02;;;;;;;1.63;1.30;;;14.70;78.50;;;;;;5033194;28;20060;-61
2022/09/09 03:41:28;;;;;;;1.52;1.23;;;14.70;78.80;;;;;;5030283;28;20040;-59
2022/09/09 03:43:54;;;;;;;1.77;1.27;;;14.70;79.10;;;;;;5034217;28;20033;-60
2022/09/09 03:46:21;;;;;;;1.33;1.23;;;14.70;79.30;;;;;;5032325;28;20120;-61
2022/09/09 03:48:47;;;;;;;3.88;1.27;;;14.80;79.40;;;;;;5032078;28;20046;-60
2022/09/09 03:51:13;;;;;;;6.72;1.33;;;14.90;79.30;;;;;;5032535;28;20406;-60
2022/09/09 03:53:39;;;;;;;1.10;1.05;;;14.90;79.30;;;;;;5030005;28;20098;-60
2022/09/09 03:56:06;;;;;;;1.33;1.23;;;14.90;79.40;;;;;;5032048;28;20064;-61
2022/09/09 03:58:34;;;;;;;2.95;1.20;;;14.90;79.50;;;;;;5029989;28;20056;-62
2022/09/09 04:01:02;;;;;;;4.85;1.70;;;15.00;79.40;;;;;;5032249;28;20033;-61
2022/09/09 04:03:28;;;;;;;2.28;1.30;;;15.10;79.50;;;;;;5030400;28;20442;-61
2022/09/09 04:05:55;;;;;;;5.20;1.40;;;15.10;79.30;;;;;;5031893;28;20025;-62
2022/09/09 04:08:22;;;;;;;4.72;1.38;;;15.20;79.30;;;;;;5032512;28;20029;-61
2022/09/09 04:10:49;;;;;;;2.35;1.10;;;15.20;79.20;;;;;;5036851;28;20531;-59
2022/09/09 04:13:16;;;;;;;2.03;1.35;;;15.30;79.30;;;;;;5033423;28;20049;-60
2022/09/09 04:15:43;;;;;;;2.53;1.00;;;15.30;79.30;;;;;;5035413;28;20029;-60
2022/09/09 04:18:09;;;;;;;2.35;1.13;;;15.30;79.20;;;;;;5036347;28;20390;-60
2022/09/09 04:20:35;;;;;;;4.82;1.30;;;15.30;79.20;;;;;;5036531;28;20045;-59
2022/09/09 04:23:01;;;;;;;1.90;1.20;;;15.40;79.40;;;;;;5032558;28;20685;-61
2022/09/09 04:25:26;;;;;;;4.22;1.40;;;15.40;79.40;;;;;;5034027;28;20048;-61
2022/09/09 04:27:56;;;;;;;1.27;1.17;;;15.40;79.60;;;;;;5035671;28;20033;-61
2022/09/09 04:30:22;;;;;;;2.55;1.63;;;15.50;80.00;;;;;;5035495;28;20036;-61
2022/09/09 04:32:47;;;;;;;1.42;1.30;;;15.50;79.90;;;;;;5030717;28;20045;-60
2022/09/09 04:35:13;;;;;;;2.10;1.08;;;15.60;80.00;;;;;;5031020;28;20035;-61
2022/09/09 04:37:39;;;;;;;4.25;1.27;;;15.60;79.90;;;;;;5036379;28;20044;-60
2022/09/09 04:40:05;;;;;;;2.00;1.20;;;15.70;80.00;;;;;;5036905;28;20570;-60
2022/09/09 04:42:35;;;;;;;3.83;1.38;;;15.70;80.10;;;;;;5036311;28;20525;-60
2022/09/09 04:45:01;;;;;;;4.32;1.20;;;15.70;80.50;;;;;;5036498;28;20038;-60
2022/09/09 04:47:27;;;;;;;2.80;1.45;;;15.80;80.40;;;;;;5037886;28;20044;-61
2022/09/09 04:49:54;;;;;;;4.40;2.00;;;15.80;80.50;;;;;;5037023;28;20025;-61
2022/09/09 04:52:20;;;;;;;4.30;2.20;;;15.90;80.50;;;;;;5034634;28;20114;-60
2022/09/09 04:54:45;;;;;;;3.35;2.05;;;15.90;81.20;;;;;;5037630;28;20080;-61
2022/09/09 04:57:11;;;;;;;2.80;1.90;;;15.90;80.40;;;;;;5036791;28;20037;-59
2022/09/09 04:59:39;;;;;;;1.75;1.40;;;16.00;80.50;;;;;;5036387;28;20048;-61
2022/09/09 05:02:05;;;;;;;2.97;1.58;;;16.00;80.60;;;;;;5036572;28;20053;-61
2022/09/09 05:04:30;;;;;;;2.45;1.65;;;16.00;80.50;;;;;;5036845;28;20126;-61
2022/09/09 05:06:56;;;;;;;3.42;1.52;;;16.00;80.50;;;;;;5036910;28;20040;-60
2022/09/09 05:09:22;;;;;;;2.95;1.60;;;16.00;80.70;;;;;;5034966;28;20088;-61
2022/09/09 05:11:48;;;;;;;2.25;1.40;;;16.00;81.00;;;;;;5030934;28;20028;-61
2022/09/09 05:14:14;;;;;;;2.92;1.20;;;16.10;81.20;;;;;;5033743;28;20287;-59
2022/09/09 05:16:40;;;;;;;3.08;1.30;;;16.10;81.40;;;;;;5031715;28;20174;-61
2022/09/09 05:19:07;;;;;;;3.65;1.65;;;16.10;81.50;;;;;;5033726;28;20080;-61
2022/09/09 05:21:33;;;;;;;4.88;2.20;;;16.20;81.60;;;;;;5032107;28;20424;-61
2022/09/09 05:24:00;;;;;;;4.40;2.20;;;16.20;81.50;;;;;;5033044;28;20052;-60
2022/09/09 05:26:26;;;;;;;4.55;1.90;;;16.20;81.70;;;;;;5032711;28;20044;-58
2022/09/09 05:28:52;;;;;;;3.75;1.58;;;16.30;81.50;;;;;;5034295;28;20033;-59
2022/09/09 05:31:18;;;;;;;15.95;6.47;;;16.30;81.30;;;;;;5028236;28;20061;-61
2022/09/09 05:33:46;;;;;;;10.05;4.65;;;16.30;81.20;;;;;;5033117;28;20041;-59
2022/09/09 05:36:14;;;;;;;5.45;3.40;;;16.30;81.20;;;;;;5033063;28;20090;-60
2022/09/09 05:38:40;;;;;;;5.15;2.30;;;16.30;81.30;;;;;;5030356;28;20040;-58
2022/09/09 05:41:07;;;;;;;5.70;2.28;;;16.30;81.20;;;;;;5032799;28;20030;-58
2022/09/09 05:43:35;;;;;;;3.30;2.40;;;16.30;81.30;;;;;;5031576;28;20033;-60
2022/09/09 05:46:01;;;;;;;5.30;2.58;;;16.30;81.30;;;;;;5032510;28;20449;-59
2022/09/09 05:48:31;;;;;;;7.80;2.30;;;16.30;81.30;;;;;;5031772;28;20124;-60
2022/09/09 05:50:58;;;;;;;2.97;1.55;;;16.30;81.90;;;;;;5031879;28;20037;-60
2022/09/09 05:53:23;;;;;;;1.98;1.35;;;16.30;81.40;;;;;;5032115;28;20049;-58
2022/09/09 05:55:49;;;;;;;2.60;1.40;;;16.30;81.70;;;;;;5030271;28;20045;-60
2022/09/09 05:58:16;;;;;;;1.63;1.35;;;16.30;81.90;;;;;;5033910;28;20041;-59
2022/09/09 06:00:43;;;;;;;3.95;1.38;;;16.30;81.90;;;;;;5031872;28;20083;-60
2022/09/09 06:03:11;;;;;;;2.20;1.38;;;16.30;82.20;;;;;;5032531;28;20622;-60
2022/09/09 06:05:37;;;;;;;4.00;1.63;;;16.30;82.60;;;;;;5032799;28;20041;-60
2022/09/09 06:08:03;;;;;;;4.32;1.30;;;16.30;82.60;;;;;;5032078;28;20037;-60
2022/09/09 06:10:28;;;;;;;2.35;1.45;;;16.30;82.90;;;;;;5032595;28;20103;-60
2022/09/09 06:12:54;;;;;;;3.13;1.60;;;16.30;83.10;;;;;;5032706;28;20045;-60
2022/09/09 06:15:20;;;;;;;2.80;1.63;;;16.30;83.30;;;;;;5032284;28;20111;-60
2022/09/09 06:17:45;;;;;;;3.80;1.33;;;16.30;83.50;;;;;;5032814;28;20449;-60
2022/09/09 06:20:12;;;;;;;3.38;1.80;;;16.40;83.80;;;;;;5032094;28;20036;-60
2022/09/09 06:22:40;;;;;;;3.15;1.63;;;16.40;83.80;;;;;;5031619;28;20037;-60
2022/09/09 06:25:08;;;;;;;4.28;2.00;;;16.50;84.10;;;;;;5032309;28;20033;-59
2022/09/09 06:27:33;;;;;;;4.07;1.58;;;16.60;84.10;;;;;;5031316;28;20037;-58
2022/09/09 06:29:59;;;;;;;4.30;1.77;;;16.60;84.10;;;;;;5034124;28;20029;-60
2022/09/09 06:32:26;;;;;;;6.00;2.00;;;16.60;84.30;;;;;;5033483;28;20037;-59
2022/09/09 06:34:52;;;;;;;3.17;1.70;;;16.70;84.30;;;;;;5030904;28;20583;-60
2022/09/09 06:37:18;;;;;;;5.78;1.70;;;16.70;84.30;;;;;;5029693;28;20107;-59
2022/09/09 06:39:44;;;;;;;6.78;1.77;;;16.80;84.20;;;;;;5030380;28;20026;-60
2022/09/09 06:42:09;;;;;;;4.57;1.60;;;16.80;84.10;;;;;;5031668;28;20228;-59
2022/09/09 06:44:36;;;;;;;4.45;1.90;;;16.90;84.00;;;;;;5028668;28;20056;-60
2022/09/09 06:47:02;;;;;;;6.13;1.80;;;17.00;84.10;;;;;;5031031;28;20033;-60
2022/09/09 06:49:27;;;;;;;4.85;1.63;;;17.00;84.10;;;;;;5032971;28;20417;-60
2022/09/09 06:51:53;;;;;;;35.83;2.20;;;17.10;84.10;;;;;;5028961;28;20043;-60
2022/09/09 06:54:19;;;;;;;2.95;1.52;;;17.10;84.20;;;;;;5029953;28;20044;-59
2022/09/09 06:56:45;;;;;;;5.93;1.63;;;17.20;84.10;;;;;;5031860;28;20116;-59
2022/09/09 06:59:11;;;;;;;2.30;1.35;;;17.20;84.20;;;;;;5032101;28;20457;-60
2022/09/09 07:01:46;;;;;;;3.25;1.45;;;17.30;84.20;;;;;;5030405;28;20037;-58
2022/09/09 07:04:13;;;;;;;3.25;1.38;;;17.30;84.20;;;;;;5032531;28;20029;-60
2022/09/09 07:06:42;;;;;;;2.10;1.20;;;17.40;84.00;;;;;;5030965;28;20037;-60
2022/09/09 07:09:10;;;;;;;4.25;1.10;;;17.40;84.00;;;;;;5030876;28;20037;-60
2022/09/09 07:11:44;;;;;;;1.67;1.05;;;17.50;84.00;;;;;;5027554;28;20025;-60
2022/09/09 07:14:13;;;;;;;2.45;0.90;;;17.60;84.30;;;;;;5033534;28;20404;-61
2022/09/09 07:16:42;;;;;;;2.38;0.88;;;17.70;83.80;;;;;;5030111;28;20033;-60
2022/09/09 07:19:08;;;;;;;2.38;0.90;;;17.70;83.60;;;;;;5030473;28;20037;-60
2022/09/09 07:21:34;;;;;;;1.40;0.80;;;17.70;83.10;;;;;;5028508;28;20117;-59
2022/09/09 07:24:01;;;;;;;2.60;1.30;;;17.80;82.90;;;;;;5031297;28;20045;-60
2022/09/09 07:26:29;;;;;;;3.70;1.00;;;17.80;82.90;;;;;;5031624;28;20048;-59
2022/09/09 07:28:58;;;;;;;3.42;0.98;;;17.80;82.90;;;;;;5031179;28;20033;-61
2022/09/09 07:31:30;;;;;;;2.13;0.95;;;17.90;82.90;;;;;;5030674;28;20029;-60
2022/09/09 07:33:56;;;;;;;1.48;0.77;;;17.90;82.90;;;;;;5033383;28;20053;-60
2022/09/09 07:36:25;;;;;;;3.63;1.02;;;18.00;82.60;;;;;;5028743;28;20075;-59
2022/09/09 07:38:53;;;;;;;2.05;0.80;;;18.00;82.60;;;;;;5029865;28;20485;-60
2022/09/09 07:41:32;;;;;;;5.78;1.50;;;18.00;82.40;;;;;;5032099;28;20057;-59
2022/09/09 07:43:58;;;;;;;2.03;0.90;;;18.00;82.60;;;;;;5032451;28;20103;-59
2022/09/09 07:46:25;;;;;;;2.22;0.90;;;18.10;82.30;;;;;;5032205;28;20064;-60
2022/09/09 07:48:53;;;;;;;3.03;0.82;;;18.10;82.60;;;;;;5035703;28;20044;-59
2022/09/09 07:51:26;;;;;;;1.85;0.95;;;18.20;82.60;;;;;;5033825;28;20057;-61
2022/09/09 07:53:55;;;;;;;1.65;0.70;;;18.20;83.00;;;;;;5034910;28;20037;-57
2022/09/09 07:56:24;;;;;;;2.17;0.82;;;18.30;82.70;;;;;;5035251;28;20037;-59
2022/09/09 07:58:51;;;;;;;2.92;0.85;;;18.30;82.40;;;;;;5015103;28;20513;-60
2022/09/09 08:01:32;;;;;;;1.52;0.80;;;18.40;82.00;;;;;;5013510;28;20042;-60
2022/09/09 08:04:00;;;;;;;2.15;1.00;;;18.50;82.20;;;;;;5012647;28;20029;-61
2022/09/09 08:06:28;;;;;;;1.25;0.60;;;18.50;81.60;;;;;;5011502;28;20037;-60
2022/09/09 08:08:54;;;;;;;1.30;0.60;;;18.50;81.50;;;;;;5014404;28;20036;-61
2022/09/09 08:11:22;;;;;;;4.82;0.88;;;18.50;81.30;;;;;;5014064;28;20053;-59
2022/09/09 08:13:50;;;;;;;2.83;0.80;;;18.60;81.30;;;;;;5016687;28;20042;-58
2022/09/09 08:16:22;;;;;;;2.35;0.90;;;18.60;81.30;;;;;;5014568;28;20037;-60
2022/09/09 08:18:51;;;;;;;1.42;0.70;;;18.60;81.20;;;;;;5011531;28;20033;-61
2022/09/09 08:21:19;;;;;;;1.67;0.57;;;18.60;80.80;;;;;;5015277;28;20469;-61
2022/09/09 08:23:47;;;;;;;1.52;0.50;;;18.70;80.80;;;;;;5014992;28;20136;-61
2022/09/09 08:26:19;;;;;;;1.67;0.52;;;18.70;80.70;;;;;;5014730;28;20429;-60
2022/09/09 08:28:45;;;;;;;1.42;0.60;;;18.80;80.50;;;;;;5014906;28;20120;-60
2022/09/09 08:31:16;;;;;;;2.65;0.50;;;18.80;80.50;;;;;;5013104;28;20104;-59
2022/09/09 08:33:45;;;;;;;1.42;0.50;;;18.80;80.30;;;;;;5013562;28;20041;-60
2022/09/09 08:36:16;;;;;;;1.17;0.50;;;18.90;80.30;;;;;;5014740;28;20140;-61
2022/09/09 08:38:42;;;;;;;1.48;0.73;;;18.90;80.30;;;;;;5013861;28;20041;-61
2022/09/09 08:41:31;;;;;;;1.92;0.60;;;18.90;79.90;;;;;;5012434;28;20124;-61
2022/09/09 08:44:03;;;;;;;3.97;0.70;;;18.90;79.80;;;;;;5012763;28;20030;-61
2022/09/09 08:46:56;;;;;;;1.73;0.65;;;19.00;79.20;;;;;;5010355;28;20386;-61
2022/09/09 08:49:59;;;;;;;1.25;0.50;;;19.00;78.40;;;;;;5015857;28;20099;-60
2022/09/09 08:52:30;;;;;;;2.22;0.80;;;19.00;78.60;;;;;;5014420;28;20029;-61
2022/09/09 08:55:03;;;;;;;2.17;0.60;;;19.10;78.80;;;;;;5014500;28;20109;-61
2022/09/09 08:57:32;;;;;;;2.05;0.45;;;19.10;78.80;;;;;;5015343;28;20044;-61
2022/09/09 08:59:58;;;;;;;1.92;0.77;;;19.10;79.10;;;;;;5012197;28;20061;-61
2022/09/09 09:02:57;;;;;;;1.75;0.60;;;19.20;79.30;;;;;;5015573;28;20080;-60
2022/09/09 09:05:37;;;;;;;4.57;0.60;;;19.30;79.10;;;;;;5014778;28;20171;-60
2022/09/09 09:08:26;;;;;;;3.03;0.90;;;19.30;78.70;;;;;;5012293;28;20038;-61
2022/09/09 09:10:56;;;;;;;2.33;0.70;;;19.40;77.70;;;;;;5013396;28;20040;-61
2022/09/09 09:13:41;;;;;;;1.08;0.50;;;19.50;77.70;;;;;;5013440;28;20505;-61
2022/09/09 09:16:22;;;;;;;2.70;0.57;;;19.50;77.20;;;;;;5017534;28;20408;-61
2022/09/09 09:18:47;;;;;;;1.70;0.63;;;19.50;76.90;;;;;;5014538;28;20122;-62
2022/09/09 09:21:39;;;;;;;1.77;0.50;;;19.60;77.10;;;;;;5017995;28;20049;-61
2022/09/09 09:24:16;;;;;;;2.00;0.60;;;19.60;76.80;;;;;;5017195;28;20405;-60
2022/09/09 09:26:43;;;;;;;2.13;0.52;;;19.60;76.60;;;;;;5014920;28;20034;-60
2022/09/09 09:29:14;;;;;;;1.98;0.55;;;19.60;76.50;;;;;;5014144;28;20042;-62
2022/09/09 09:31:48;;;;;;;2.58;0.80;;;19.60;77.10;;;;;;5010512;28;20037;-62
2022/09/09 09:34:13;;;;;;;3.40;0.82;;;19.60;77.20;;;;;;5012592;28;20026;-61
2022/09/09 09:36:44;;;;;;;5.18;0.70;;;19.70;77.00;;;;;;5014114;28;20095;-61
2022/09/09 09:39:10;;;;;;;2.67;0.80;;;19.70;77.00;;;;;;5010873;28;20033;-61
2022/09/09 09:41:39;;;;;;;2.03;0.57;;;19.70;76.90;;;;;;5013286;28;20033;-61
2022/09/09 09:44:19;;;;;;;0.50;0.40;;;19.80;76.50;;;;;;5014970;28;20121;-62
2022/09/09 09:46:45;;;;;;;2.10;0.68;;;19.80;76.30;;;;;;5009451;28;20033;-61
2022/09/09 09:49:10;;;;;;;3.70;0.70;;;19.90;76.50;;;;;;5014613;28;20037;-61
2022/09/09 09:51:36;;;;;;;1.20;0.55;;;19.90;76.30;;;;;;5011444;28;20026;-60
2022/09/09 09:54:17;;;;;;;1.85;0.70;;;20.10;76.20;;;;;;5010181;28;20506;-60
2022/09/09 09:56:44;;;;;;;2.15;0.63;;;20.10;75.40;;;;;;5013466;28;20034;-60
2022/09/09 09:59:28;;;;;;;2.35;0.52;;;20.20;75.40;;;;;;5012350;28;20034;-61
2022/09/09 10:01:53;;;;;;;3.05;0.40;;;20.30;73.90;;;;;;5012103;28;20041;-61
2022/09/09 10:04:23;;;;;;;1.35;0.50;;;20.40;74.30;;;;;;5013697;28;20430;-62
2022/09/09 10:06:49;;;;;;;1.52;0.45;;;20.50;73.50;;;;;;5010689;28;20124;-61
2022/09/09 10:09:32;;;;;;;2.03;0.70;;;20.60;73.30;;;;;;5013620;28;20532;-62
2022/09/09 10:12:19;;;;;;;1.35;0.63;;;20.70;71.20;;;;;;5010392;28;20042;-62
2022/09/09 10:15:13;;;;;;;1.83;0.40;;;20.70;71.60;;;;;;5013338;28;20124;-62
2022/09/09 10:18:12;;;;;;;2.35;0.40;;;20.80;70.20;;;;;;5011393;28;20126;-61
2022/09/09 10:21:13;;;;;;;1.23;0.40;;;20.90;70.10;;;;;;5011406;28;20559;-62
2022/09/09 10:24:12;;;;;;;1.70;0.32;;;21.00;69.80;;;;;;5011306;28;20034;-62
2022/09/09 10:27:01;;;;;;;1.52;0.47;;;21.00;68.50;;;;;;5012851;28;20053;-62
2022/09/09 10:29:30;;;;;;;3.38;0.20;;;21.20;67.60;;;;;;5013375;28;20060;-61
2022/09/09 10:32:24;;;;;;;0.90;0.40;;;21.20;68.30;;;;;;5012940;28;20083;-62
2022/09/09 10:34:57;;;;;;;3.20;0.40;;;21.30;66.90;;;;;;5011016;28;20060;-62
2022/09/09 10:37:42;;;;;;;1.73;0.40;;;21.30;66.00;;;;;;5013091;28;20030;-61
2022/09/09 10:40:31;;;;;;;0.60;0.20;;;21.30;65.30;;;;;;5012219;28;20034;-62
2022/09/09 10:43:10;;;;;;;1.30;0.40;;;21.40;64.40;;;;;;5013220;28;20034;-61
2022/09/09 10:45:49;;;;;;;1.88;0.32;;;21.30;64.80;;;;;;5010401;28;20520;-62
2022/09/09 10:48:26;;;;;;;1.52;0.50;;;21.30;64.40;;;;;;5013860;28;21198;-61
2022/09/09 10:51:20;;;;;;;0.73;0.30;;;21.30;65.50;;;;;;5030087;28;20056;-61
2022/09/09 10:54:07;;;;;;;1.25;0.30;;;21.30;65.30;;;;;;5033755;28;20041;-61
2022/09/09 10:56:34;;;;;;;2.33;0.52;;;21.30;65.30;;;;;;5033512;28;20068;-61
2022/09/09 10:59:06;;;;;;;1.90;0.40;;;21.30;65.70;;;;;;5033161;28;20121;-62
2022/09/09 11:01:39;;;;;;;4.97;0.50;;;21.30;65.00;;;;;;5031742;28;20163;-61
2022/09/09 11:04:20;;;;;;;1.88;0.52;;;21.30;64.40;;;;;;5031898;28;20041;-61
2022/09/09 11:06:52;;;;;;;2.20;0.40;;;21.30;64.20;;;;;;5031355;28;20400;-61
2022/09/09 11:09:22;;;;;;;0.85;0.38;;;21.30;65.10;;;;;;5031222;28;20085;-62
2022/09/09 11:11:55;;;;;;;1.42;0.50;;;21.20;65.50;;;;;;5029341;28;20070;-61
2022/09/09 11:14:42;;;;;;;3.00;0.30;;;21.20;65.00;;;;;;5032132;28;20038;-61
2022/09/09 11:17:20;;;;;;;1.08;0.30;;;21.30;65.70;;;;;;5034027;28;20039;-61
2022/09/09 11:19:46;;;;;;;1.42;0.40;;;21.30;64.40;;;;;;5034799;28;20029;-61
2022/09/09 11:22:25;;;;;;;2.15;0.45;;;21.50;65.00;;;;;;5034672;28;20044;-62
2022/09/09 11:24:57;;;;;;;2.33;0.40;;;21.60;63.30;;;;;;5016236;28;20401;-61
2022/09/09 11:27:32;;;;;;;1.60;0.63;;;21.70;63.40;;;;;;5015329;28;20041;-62
2022/09/09 11:30:16;;;;;;;;;;;21.80;61.90;;;;;;5017214;28;20420;-61
2022/09/09 11:33:02;;;;;;;0.77;0.40;;;21.90;59.70;;;;;;5011828;28;20385;-62
2022/09/09 11:35:39;;;;;;;1.17;0.40;;;22.00;60.10;;;;;;5012686;28;20491;-61
2022/09/09 11:38:25;;;;;;;1.27;0.40;;;22.00;59.90;;;;;;5016628;28;20030;-61
2022/09/09 11:41:07;;;;;;;1.83;0.50;;;22.00;59.40;;;;;;5032652;28;20140;-62
2022/09/09 11:43:51;;;;;;;1.75;0.60;;;22.10;60.80;;;;;;5036551;28;20032;-62
2022/09/09 11:46:22;;;;;;;3.40;0.40;;;22.00;59.80;;;;;;5032720;28;20604;-62
2022/09/09 11:49:03;;;;;;;1.63;0.40;;;22.00;59.60;;;;;;5036359;28;20501;-61
2022/09/09 11:51:31;;;;;;;0.90;0.30;;;21.90;59.00;;;;;;5035073;28;20448;-62
2022/09/09 11:54:02;;;;;;;1.38;0.50;;;22.00;60.60;;;;;;5036195;28;20120;-62
2022/09/09 11:56:47;;;;;;;1.17;0.30;;;21.90;60.30;;;;;;5034291;28;20507;-62
2022/09/09 11:59:23;;;;;;;1.67;0.40;;;21.90;60.80;;;;;;5035591;28;20045;-61
2022/09/09 12:02:02;;;;;;;2.53;0.40;;;21.90;59.50;;;;;;5033962;28;20286;-62
2022/09/09 12:04:39;;;;;;;1.15;0.50;;;21.90;59.10;;;;;;5036519;28;20069;-62
2022/09/09 12:07:08;;;;;;;2.78;0.75;;;22.00;59.90;;;;;;5035529;28;20672;-61
2022/09/09 12:09:41;;;;;;;2.72;0.73;;;22.00;61.90;;;;;;5034527;28;20037;-60
2022/09/09 12:12:12;;;;;;;1.33;0.40;;;22.00;60.80;;;;;;5033201;28;20041;-61
2022/09/09 12:14:43;;;;;;;0.77;0.30;;;22.00;59.40;;;;;;5036796;28;20346;-61
2022/09/09 12:17:14;;;;;;;1.27;0.30;;;22.00;59.70;;;;;;5037733;28;20090;-61
2022/09/09 12:19:40;;;;;;;1.92;0.38;;;22.00;59.30;;;;;;5037302;28;20529;-62
2022/09/09 12:22:19;;;;;;;1.77;0.30;;;22.00;59.90;;;;;;5038091;28;20090;-62
2022/09/09 12:25:20;;;;;;;1.00;0.60;;;22.00;59.30;;;;;;5038202;28;20033;-62
2022/09/09 12:28:11;;;;;;;1.95;0.50;;;22.00;59.10;;;;;;5036217;28;20046;-62
2022/09/09 12:30:46;;;;;;;1.90;0.68;;;22.00;58.00;;;;;;5038439;28;20119;-62
2022/09/09 12:33:16;;;;;;;1.83;0.40;;;22.00;59.70;;;;;;5037150;28;20412;-62
2022/09/09 12:35:44;;;;;;;0.82;0.30;;;22.10;60.10;;;;;;5037512;28;20041;-62
2022/09/09 12:38:28;;;;;;;0.50;0.30;;;22.10;59.90;;;;;;5037014;28;20509;-62
2022/09/09 12:40:57;;;;;;;1.13;0.70;;;22.00;59.40;;;;;;5037672;28;20037;-61
2022/09/09 12:43:24;;;;;;;4.68;0.77;;;22.00;59.50;;;;;;5038213;28;20420;-62
2022/09/09 12:45:57;;;;;;;1.08;0.55;;;22.10;60.30;;;;;;5036645;28;20042;-62
2022/09/09 12:48:36;;;;;;;1.25;0.50;;;22.10;60.60;;;;;;5037891;28;20038;-61
2022/09/09 12:51:05;;;;;;;1.88;0.50;;;22.10;60.60;;;;;;5036384;28;20085;-62
2022/09/09 12:53:35;;;;;;;1.25;0.43;;;22.10;60.50;;;;;;5037783;28;20126;-61
2022/09/09 12:56:03;;;;;;;1.17;0.50;;;22.10;60.00;;;;;;5036736;28;20040;-62
2022/09/09 12:58:32;;;;;;;1.92;0.50;;;22.20;60.10;;;;;;5037492;28;20048;-62
2022/09/09 13:00:59;;;;;;;2.10;0.50;;;22.20;60.30;;;;;;5039051;28;20261;-62
2022/09/09 13:03:26;;;;;;;1.17;0.40;;;22.20;60.60;;;;;;5039297;28;20507;-61
2022/09/09 13:05:53;;;;;;;1.35;0.45;;;22.20;60.20;;;;;;5037276;28;20061;-61
2022/09/09 13:08:20;;;;;;;1.20;0.47;;;22.20;60.50;;;;;;5038281;28;20068;-62
2022/09/09 13:10:56;;;;;;;1.02;0.35;;;22.30;60.60;;;;;;5037440;28;20147;-61
2022/09/09 13:13:26;;;;;;;1.25;0.40;;;22.30;60.80;;;;;;5036285;28;20179;-60